»·PEaware :: N4VY KEMT-KRNM

N4VY :: KEMT-KRNM

FLIGHT INFORMATION

Flight Status: Arrived
Operator: Privately registered:
United States
More flights under this callsign
Pilot: Jeremy H. (30118)
Aircraft: CESSNA 172 SKYHAWK
(C172)
More flights by this aircraft type
Origin: KEMT El Monte
United States
Destination: KRNM Ramona
United States
More flights between these airports :: More routes between these airports
Route: PDZ V186 ROBNN V208 JLI
File this flight plan on PilotEdge
Remarks:
Altitude:
(Current/Filed)
6,000ft
Speed:
(Current/Filed)
110kts
Departed: 08-Sep-20 08:22 PM
Arrived: 08-Sep-20 09:13 PM
Distance/Time
Traveled:
84nm/0:51
Distance/Time
To Go:
Arrived

Flight Plot

Page will automatically refresh every two minutes.


Map Options




Map Legend


Flown Route
Filed Route
Departure Airport
Arrival Airport
Navaid (VOR, NDB)
Fix

Horizontal Profiles

Position Reports

Time Latitude Longitude Heading Altitude Ground
Speed
08-Sep-20 20:14 34.088647 -118.032270 295 293ft 0kts
08-Sep-20 20:14 34.088647 -118.032270 295 293ft 0kts
08-Sep-20 20:16 34.088647 -118.032270 295 293ft 0kts
08-Sep-20 20:17 34.088647 -118.032270 295 293ft 0kts
08-Sep-20 20:17 34.088647 -118.032270 295 293ft 0kts
08-Sep-20 20:19 34.088647 -118.032270 295 293ft 0kts
08-Sep-20 20:20 34.090729 -118.031652 328 296ft 0kts
08-Sep-20 20:20 34.090729 -118.031652 328 296ft 0kts
08-Sep-20 20:21 34.083471 -118.036107 201 507ft 75kts
08-Sep-20 20:23 34.059074 -118.044365 186 1547ft 84kts
08-Sep-20 20:23 34.040459 -118.041308 201 2265ft 78kts
08-Sep-20 20:24 34.018657 -118.042257 195 3144ft 84kts
08-Sep-20 20:25 34.009388 -118.020770 73 3770ft 109kts
08-Sep-20 20:26 34.008763 -117.990277 85 4178ft 137kts
08-Sep-20 20:27 34.004094 -117.956783 88 4558ft 147kts
08-Sep-20 20:28 33.997647 -117.921631 86 4948ft 148kts
08-Sep-20 20:29 33.988299 -117.874016 81 5501ft 141kts
08-Sep-20 20:30 33.971333 -117.789026 74 6594ft 123kts
08-Sep-20 20:31 33.961986 -117.741540 73 7256ft 118kts
08-Sep-20 20:32 33.952985 -117.693332 80 6776ft 150kts
08-Sep-20 20:33 33.938387 -117.622358 101 6167ft 151kts
08-Sep-20 20:34 33.924259 -117.553257 101 5985ft 146kts
08-Sep-20 20:35 33.895989 -117.507531 149 5984ft 143kts
08-Sep-20 20:36 33.862351 -117.481070 147 5983ft 142kts
08-Sep-20 20:37 33.829746 -117.453973 146 5984ft 142kts
08-Sep-20 20:38 33.802843 -117.431460 146 5984ft 142kts
08-Sep-20 20:39 33.772319 -117.406671 148 6004ft 141kts
08-Sep-20 20:40 33.729580 -117.371730 146 6004ft 142kts
08-Sep-20 20:41 33.698249 -117.345598 147 6002ft 142kts
08-Sep-20 20:42 33.665901 -117.318589 147 6002ft 141kts
08-Sep-20 20:43 33.633815 -117.291813 147 6002ft 141kts
08-Sep-20 20:44 33.601682 -117.264969 146 6002ft 142kts
08-Sep-20 20:45 33.569261 -117.237999 147 6002ft 141kts
08-Sep-20 20:46 33.536928 -117.211078 147 6002ft 142kts
08-Sep-20 20:47 33.504464 -117.184103 147 6003ft 142kts
08-Sep-20 20:48 33.478232 -117.163474 163 6000ft 140kts
08-Sep-20 20:49 33.434739 -117.152295 174 6577ft 118kts
08-Sep-20 20:50 33.397233 -117.140961 128 7295ft 114kts
08-Sep-20 20:51 33.383170 -117.109281 114 7876ft 109kts
08-Sep-20 20:52 33.368941 -117.078066 114 8472ft 104kts
08-Sep-20 20:53 33.353771 -117.045028 115 8712ft 129kts
08-Sep-20 20:54 33.335408 -117.005307 115 8723ft 139kts
08-Sep-20 20:55 33.316639 -116.964647 115 8729ft 141kts
08-Sep-20 20:56 33.297533 -116.923290 115 8734ft 141kts
08-Sep-20 20:57 33.278519 -116.882176 115 8741ft 141kts
08-Sep-20 20:58 33.259368 -116.840809 115 8748ft 141kts
08-Sep-20 20:59 33.240255 -116.799574 115 8756ft 141kts
08-Sep-20 21:00 33.214884 -116.765321 161 8588ft 153kts
08-Sep-20 21:01 33.173235 -116.748209 162 8001ft 159kts
08-Sep-20 21:02 33.132637 -116.731244 162 7322ft 135kts
08-Sep-20 21:03 33.102578 -116.718045 175 6406ft 103kts
08-Sep-20 21:04 33.085185 -116.734426 265 5764ft 64kts
08-Sep-20 21:05 33.078927 -116.761428 253 5657ft 103kts
08-Sep-20 21:06 33.079636 -116.793835 261 5050ft 99kts
08-Sep-20 21:07 33.064938 -116.823019 251 4412ft 97kts
08-Sep-20 21:08 33.049242 -116.843967 192 3904ft 95kts
08-Sep-20 21:09 33.030646 -116.855129 272 3564ft 59kts
08-Sep-20 21:10 33.032873 -116.876027 277 3175ft 71kts
08-Sep-20 21:11 33.036715 -116.898907 281 1914ft 73kts
08-Sep-20 21:12 33.039205 -116.914941 321 1392ft 19kts
08-Sep-20 21:13 33.040103 -116.913672 47 1392ft 13kts

Navigation Log

Ident Type
Flight plan parsing failed, navigation log unavailable